sensor_id;sensor_type;location;lat;lon;timestamp;pressure;altitude;pressure_sealevel;temperature;humidity
15670;BME280;18524;45.190;5.732;2023-05-10T00:00:13;99121.13;;;16.19;100.00
15670;BME280;18524;45.190;5.732;2023-05-10T00:05:04;99095.97;;;16.15;100.00
15670;BME280;18524;45.190;5.732;2023-05-10T00:09:55;99092.34;;;16.16;100.00
15670;BME280;18524;45.190;5.732;2023-05-10T00:14:45;99103.22;;;16.05;100.00
15670;BME280;18524;45.190;5.732;2023-05-10T00:19:35;99094.63;;;16.03;100.00
15670;BME280;18524;45.190;5.732;2023-05-10T00:24:26;99112.50;;;16.09;100.00
15670;BME280;18524;45.190;5.732;2023-05-10T00:29:16;99113.84;;;16.13;100.00
15670;BME280;18524;45.190;5.732;2023-05-10T00:34:07;99111.22;;;16.21;100.00
15670;BME280;18524;45.190;5.732;2023-05-10T00:38:57;99127.72;;;16.15;100.00
15670;BME280;18524;45.190;5.732;2023-05-10T00:43:47;99134.53;;;16.25;100.00
15670;BME280;18524;45.190;5.732;2023-05-10T00:48:38;99122.13;;;16.26;100.00
15670;BME280;18524;45.190;5.732;2023-05-10T00:53:30;99125.47;;;16.28;100.00
15670;BME280;18524;45.190;5.732;2023-05-10T00:58:22;99127.09;;;16.21;100.00
15670;BME280;18524;45.190;5.732;2023-05-10T01:03:14;99122.94;;;16.18;100.00
15670;BME280;18524;45.190;5.732;2023-05-10T01:08:04;99113.84;;;16.13;100.00
15670;BME280;18524;45.190;5.732;2023-05-10T01:12:55;99105.38;;;16.01;100.00
15670;BME280;18524;45.190;5.732;2023-05-10T01:17:47;99101.84;;;15.92;100.00
15670;BME280;18524;45.190;5.732;2023-05-10T01:38:26;99100.81;;;15.85;100.00
15670;BME280;18524;45.190;5.732;2023-05-10T01:43:23;99097.19;;;15.86;100.00
15670;BME280;18524;45.190;5.732;2023-05-10T01:48:16;99103.94;;;15.81;100.00
15670;BME280;18524;45.190;5.732;2023-05-10T01:53:10;99115.34;;;15.81;100.00
15670;BME280;18524;45.190;5.732;2023-05-10T01:58:05;99118.25;;;15.70;100.00
15670;BME280;18524;45.190;5.732;2023-05-10T02:02:57;99107.69;;;15.70;100.00
15670;BME280;18524;45.190;5.732;2023-05-10T02:07:48;99107.69;;;15.70;100.00
15670;BME280;18524;45.190;5.732;2023-05-10T02:12:42;99115.94;;;15.67;100.00
15670;BME280;18524;45.190;5.732;2023-05-10T02:17:34;99103.34;;;15.61;100.00
15670;BME280;18524;45.190;5.732;2023-05-10T02:22:27;99105.41;;;15.57;100.00
15670;BME280;18524;45.190;5.732;2023-05-10T02:27:19;99101.75;;;15.50;100.00
15670;BME280;18524;45.190;5.732;2023-05-10T02:32:11;99094.47;;;15.52;100.00
15670;BME280;18524;45.190;5.732;2023-05-10T02:37:02;99100.72;;;15.43;100.00
15670;BME280;18524;45.190;5.732;2023-05-10T02:41:54;99094.13;;;15.47;100.00
15670;BME280;18524;45.190;5.732;2023-05-10T02:46:45;99099.56;;;15.46;100.00
15670;BME280;18524;45.190;5.732;2023-05-10T02:51:41;99089.66;;;15.48;100.00
15670;BME280;18524;45.190;5.732;2023-05-10T02:56:34;99088.38;;;15.52;100.00
15670;BME280;18524;45.190;5.732;2023-05-10T03:01:26;99093.28;;;15.47;100.00
15670;BME280;18524;45.190;5.732;2023-05-10T03:06:16;99079.72;;;15.42;100.00
15670;BME280;18524;45.190;5.732;2023-05-10T03:16:15;99077.75;;;15.44;100.00
15670;BME280;18524;45.190;5.732;2023-05-10T03:21:07;99078.75;;;15.43;100.00
15670;BME280;18524;45.190;5.732;2023-05-10T03:26:02;99088.53;;;15.50;100.00
15670;BME280;18524;45.190;5.732;2023-05-10T03:30:55;99089.16;;;15.44;100.00
15670;BME280;18524;45.190;5.732;2023-05-10T03:35:46;99086.34;;;15.46;100.00
15670;BME280;18524;45.190;5.732;2023-05-10T03:40:37;99086.66;;;15.43;100.00
15670;BME280;18524;45.190;5.732;2023-05-10T03:45:27;99075.22;;;15.34;100.00
15670;BME280;18524;45.190;5.732;2023-05-10T03:50:17;99080.00;;;15.30;100.00
15670;BME280;18524;45.190;5.732;2023-05-10T03:55:08;99084.44;;;15.30;100.00
15670;BME280;18524;45.190;5.732;2023-05-10T03:59:59;99092.72;;;15.35;100.00
15670;BME280;18524;45.190;5.732;2023-05-10T04:04:49;99095.16;;;15.28;100.00
15670;BME280;18524;45.190;5.732;2023-05-10T04:09:40;99096.97;;;15.28;100.00
15670;BME280;18524;45.190;5.732;2023-05-10T04:14:31;99094.78;;;15.23;100.00
15670;BME280;18524;45.190;5.732;2023-05-10T04:19:21;99104.56;;;15.05;100.00
15670;BME280;18524;45.190;5.732;2023-05-10T04:24:11;99088.41;;;15.08;100.00
15670;BME280;18524;45.190;5.732;2023-05-10T04:29:02;99107.88;;;15.07;100.00
15670;BME280;18524;45.190;5.732;2023-05-10T04:33:52;99125.44;;;15.16;100.00
15670;BME280;18524;45.190;5.732;2023-05-10T04:38:43;99121.34;;;15.22;100.00
15670;BME280;18524;45.190;5.732;2023-05-10T04:43:34;99127.50;;;15.05;100.00
15670;BME280;18524;45.190;5.732;2023-05-10T04:48:25;99126.38;;;15.07;100.00
15670;BME280;18524;45.190;5.732;2023-05-10T04:53:15;99131.53;;;14.91;100.00
15670;BME280;18524;45.190;5.732;2023-05-10T04:58:05;99129.03;;;14.89;100.00
15670;BME280;18524;45.190;5.732;2023-05-10T05:02:56;99128.47;;;14.86;100.00
15670;BME280;18524;45.190;5.732;2023-05-10T05:07:46;99125.84;;;14.86;100.00
15670;BME280;18524;45.190;5.732;2023-05-10T05:12:37;99126.75;;;14.94;100.00
15670;BME280;18524;45.190;5.732;2023-05-10T05:17:27;99128.94;;;14.99;100.00
15670;BME280;18524;45.190;5.732;2023-05-10T05:22:18;99129.88;;;14.90;100.00
15670;BME280;18524;45.190;5.732;2023-05-10T05:27:09;99135.16;;;14.90;100.00
15670;BME280;18524;45.190;5.732;2023-05-10T05:31:59;99137.63;;;14.91;100.00
15670;BME280;18524;45.190;5.732;2023-05-10T05:36:50;99146.06;;;14.95;100.00
15670;BME280;18524;45.190;5.732;2023-05-10T05:41:40;99147.50;;;14.89;100.00
15670;BME280;18524;45.190;5.732;2023-05-10T05:46:31;99149.91;;;15.00;100.00
15670;BME280;18524;45.190;5.732;2023-05-10T05:51:21;99153.38;;;15.01;100.00
15670;BME280;18524;45.190;5.732;2023-05-10T05:56:11;99158.06;;;15.07;100.00
15670;BME280;18524;45.190;5.732;2023-05-10T06:01:02;99158.75;;;14.91;100.00
15670;BME280;18524;45.190;5.732;2023-05-10T06:05:52;99172.72;;;15.01;99.97
15670;BME280;18524;45.190;5.732;2023-05-10T06:10:42;99159.72;;;14.90;97.28
15670;BME280;18524;45.190;5.732;2023-05-10T06:15:33;99167.41;;;14.84;95.63
15670;BME280;18524;45.190;5.732;2023-05-10T06:20:23;99184.63;;;14.88;98.70
15670;BME280;18524;45.190;5.732;2023-05-10T06:25:14;99174.81;;;14.98;94.83
15670;BME280;18524;45.190;5.732;2023-05-10T06:30:05;99185.16;;;14.91;97.30
15670;BME280;18524;45.190;5.732;2023-05-10T06:34:55;99176.09;;;14.94;94.66
15670;BME280;18524;45.190;5.732;2023-05-10T06:39:47;99188.72;;;15.00;94.00
15670;BME280;18524;45.190;5.732;2023-05-10T06:44:37;99192.69;;;15.04;92.96
15670;BME280;18524;45.190;5.732;2023-05-10T06:49:28;99201.69;;;15.11;92.01
15670;BME280;18524;45.190;5.732;2023-05-10T06:54:18;99203.66;;;15.09;97.02
15670;BME280;18524;45.190;5.732;2023-05-10T06:59:08;99200.09;;;15.18;100.00
15670;BME280;18524;45.190;5.732;2023-05-10T07:03:59;99207.19;;;15.36;95.18
15670;BME280;18524;45.190;5.732;2023-05-10T07:08:50;99206.00;;;15.30;96.85
15670;BME280;18524;45.190;5.732;2023-05-10T07:13:41;99215.38;;;15.24;98.04
15670;BME280;18524;45.190;5.732;2023-05-10T07:18:34;99220.50;;;15.26;99.53
15670;BME280;18524;45.190;5.732;2023-05-10T07:23:24;99229.22;;;15.44;91.29
15670;BME280;18524;45.190;5.732;2023-05-10T07:28:15;99225.50;;;15.55;90.74
15670;BME280;18524;45.190;5.732;2023-05-10T07:33:06;99236.41;;;15.70;88.48
15670;BME280;18524;45.190;5.732;2023-05-10T07:37:58;99252.97;;;15.72;92.30
15670;BME280;18524;45.190;5.732;2023-05-10T07:42:48;99251.19;;;15.80;86.96
15670;BME280;18524;45.190;5.732;2023-05-10T07:47:39;99251.03;;;15.82;87.57
15670;BME280;18524;45.190;5.732;2023-05-10T07:52:29;99242.31;;;15.89;87.34
15670;BME280;18524;45.190;5.732;2023-05-10T07:57:20;99240.84;;;16.13;86.95
15670;BME280;18524;45.190;5.732;2023-05-10T08:02:10;99232.25;;;16.45;83.13
15670;BME280;18524;45.190;5.732;2023-05-10T08:07:00;99216.03;;;16.82;80.20
15670;BME280;18524;45.190;5.732;2023-05-10T08:11:51;99210.97;;;17.29;79.03
15670;BME280;18524;45.190;5.732;2023-05-10T08:16:41;99216.63;;;17.91;76.76
15670;BME280;18524;45.190;5.732;2023-05-10T08:21:31;99214.13;;;17.98;73.66
15670;BME280;18524;45.190;5.732;2023-05-10T08:26:22;99213.13;;;17.74;79.12
15670;BME280;18524;45.190;5.732;2023-05-10T08:31:12;99219.13;;;17.68;77.99
15670;BME280;18524;45.190;5.732;2023-05-10T08:36:03;99214.31;;;17.88;76.98
15670;BME280;18524;45.190;5.732;2023-05-10T08:40:54;99219.38;;;18.22;76.25
15670;BME280;18524;45.190;5.732;2023-05-10T08:45:48;99227.22;;;18.63;73.98
15670;BME280;18524;45.190;5.732;2023-05-10T08:50:41;99211.59;;;18.68;76.76
15670;BME280;18524;45.190;5.732;2023-05-10T08:55:33;99235.03;;;18.48;73.20
15670;BME280;18524;45.190;5.732;2023-05-10T09:00:23;99237.78;;;18.24;72.79
15670;BME280;18524;45.190;5.732;2023-05-10T09:05:14;99242.88;;;18.41;74.01
15670;BME280;18524;45.190;5.732;2023-05-10T09:10:06;99247.94;;;18.67;70.28
15670;BME280;18524;45.190;5.732;2023-05-10T09:14:59;99236.66;;;18.57;67.47
15670;BME280;18524;45.190;5.732;2023-05-10T09:19:49;99239.34;;;18.96;65.96
15670;BME280;18524;45.190;5.732;2023-05-10T09:24:42;99246.75;;;19.09;64.98
15670;BME280;18524;45.190;5.732;2023-05-10T09:29:44;99243.44;;;19.07;66.46
15670;BME280;18524;45.190;5.732;2023-05-10T09:34:35;99243.19;;;19.17;63.71
15670;BME280;18524;45.190;5.732;2023-05-10T09:39:33;99235.88;;;18.96;66.72
15670;BME280;18524;45.190;5.732;2023-05-10T09:44:25;99245.47;;;18.66;69.48
15670;BME280;18524;45.190;5.732;2023-05-10T09:49:16;99243.63;;;18.66;73.53
15670;BME280;18524;45.190;5.732;2023-05-10T09:54:11;99253.09;;;18.61;70.04
15670;BME280;18524;45.190;5.732;2023-05-10T09:59:02;99258.78;;;18.41;68.89
15670;BME280;18524;45.190;5.732;2023-05-10T10:03:53;99253.38;;;18.19;67.33
15670;BME280;18524;45.190;5.732;2023-05-10T10:08:44;99258.69;;;18.10;70.84
15670;BME280;18524;45.190;5.732;2023-05-10T10:13:35;99253.72;;;18.16;73.60
15670;BME280;18524;45.190;5.732;2023-05-10T10:18:25;99238.16;;;18.60;68.03
15670;BME280;18524;45.190;5.732;2023-05-10T10:23:17;99242.31;;;18.93;66.41
15670;BME280;18524;45.190;5.732;2023-05-10T10:38:01;99232.84;;;20.05;65.17
15670;BME280;18524;45.190;5.732;2023-05-10T10:42:52;99237.84;;;20.08;64.34
15670;BME280;18524;45.190;5.732;2023-05-10T10:47:44;99227.69;;;19.74;66.65
15670;BME280;18524;45.190;5.732;2023-05-10T10:52:39;99219.03;;;19.49;66.91
15670;BME280;18524;45.190;5.732;2023-05-10T10:57:55;99209.31;;;19.79;62.06
15670;BME280;18524;45.190;5.732;2023-05-10T11:02:52;99208.53;;;20.67;50.22
15670;BME280;18524;45.190;5.732;2023-05-10T11:07:57;99196.91;;;21.11;46.41
15670;BME280;18524;45.190;5.732;2023-05-10T11:13:07;99199.31;;;20.70;48.61
15670;BME280;18524;45.190;5.732;2023-05-10T11:17:58;99216.91;;;20.64;54.59
15670;BME280;18524;45.190;5.732;2023-05-10T11:22:50;99210.44;;;20.73;57.17
15670;BME280;18524;45.190;5.732;2023-05-10T11:27:43;99214.59;;;20.17;53.49
15670;BME280;18524;45.190;5.732;2023-05-10T11:32:37;99211.72;;;20.77;53.76
15670;BME280;18524;45.190;5.732;2023-05-10T11:37:28;99211.13;;;21.82;50.53
15670;BME280;18524;45.190;5.732;2023-05-10T11:42:22;99203.66;;;21.99;48.79
15670;BME280;18524;45.190;5.732;2023-05-10T11:47:12;99218.75;;;21.57;45.90
15670;BME280;18524;45.190;5.732;2023-05-10T11:52:06;99233.22;;;20.90;49.45
15670;BME280;18524;45.190;5.732;2023-05-10T11:56:57;99220.03;;;20.09;50.59
15670;BME280;18524;45.190;5.732;2023-05-10T12:01:48;99235.16;;;20.08;52.73
15670;BME280;18524;45.190;5.732;2023-05-10T12:06:40;99233.16;;;20.84;50.53
15670;BME280;18524;45.190;5.732;2023-05-10T12:11:31;99232.22;;;20.18;53.48
15670;BME280;18524;45.190;5.732;2023-05-10T12:16:22;99227.78;;;19.58;54.10
15670;BME280;18524;45.190;5.732;2023-05-10T12:21:14;99223.81;;;19.77;51.39
15670;BME280;18524;45.190;5.732;2023-05-10T12:26:05;99222.78;;;20.15;51.06
15670;BME280;18524;45.190;5.732;2023-05-10T12:30:57;99212.94;;;21.53;47.14
15670;BME280;18524;45.190;5.732;2023-05-10T12:35:49;99214.53;;;22.66;47.28
15670;BME280;18524;45.190;5.732;2023-05-10T12:40:40;99208.28;;;22.46;45.24
15670;BME280;18524;45.190;5.732;2023-05-10T12:45:31;99212.75;;;22.32;46.81
15670;BME280;18524;45.190;5.732;2023-05-10T12:50:21;99213.22;;;22.14;46.72
15670;BME280;18524;45.190;5.732;2023-05-10T12:55:11;99209.47;;;21.81;46.03
15670;BME280;18524;45.190;5.732;2023-05-10T13:00:02;99216.59;;;21.10;50.46
15670;BME280;18524;45.190;5.732;2023-05-10T13:04:52;99216.41;;;20.90;49.83
15670;BME280;18524;45.190;5.732;2023-05-10T13:09:44;99215.50;;;20.83;49.49
15670;BME280;18524;45.190;5.732;2023-05-10T13:14:35;99214.47;;;20.84;49.83
15670;BME280;18524;45.190;5.732;2023-05-10T13:19:25;99209.94;;;20.99;46.06
15670;BME280;18524;45.190;5.732;2023-05-10T13:24:16;99210.31;;;20.96;47.58
15670;BME280;18524;45.190;5.732;2023-05-10T13:29:07;99197.53;;;21.13;48.47
15670;BME280;18524;45.190;5.732;2023-05-10T13:33:58;99192.19;;;21.28;45.85
15670;BME280;18524;45.190;5.732;2023-05-10T13:38:48;99177.13;;;21.41;45.57
15670;BME280;18524;45.190;5.732;2023-05-10T13:43:38;99185.22;;;21.54;44.23
15670;BME280;18524;45.190;5.732;2023-05-10T13:48:29;99169.31;;;21.40;44.47
15670;BME280;18524;45.190;5.732;2023-05-10T13:53:19;99167.47;;;21.19;43.63
15670;BME280;18524;45.190;5.732;2023-05-10T13:58:10;99182.13;;;20.87;45.25
15670;BME280;18524;45.190;5.732;2023-05-10T14:03:00;99174.41;;;20.77;43.87
15670;BME280;18524;45.190;5.732;2023-05-10T14:07:51;99154.44;;;20.52;46.04
15670;BME280;18524;45.190;5.732;2023-05-10T14:12:41;99163.16;;;20.60;45.27
15670;BME280;18524;45.190;5.732;2023-05-10T14:17:31;99168.31;;;20.47;46.36
15670;BME280;18524;45.190;5.732;2023-05-10T14:22:22;99139.03;;;20.69;46.80
15670;BME280;18524;45.190;5.732;2023-05-10T14:27:12;99145.00;;;20.71;45.56
15670;BME280;18524;45.190;5.732;2023-05-10T14:32:03;99149.28;;;20.86;44.32
15670;BME280;18524;45.190;5.732;2023-05-10T14:36:53;99141.47;;;21.06;44.69
15670;BME280;18524;45.190;5.732;2023-05-10T14:41:44;99142.78;;;20.74;42.17
15670;BME280;18524;45.190;5.732;2023-05-10T14:46:35;99144.59;;;20.88;43.24
15670;BME280;18524;45.190;5.732;2023-05-10T14:51:26;99129.50;;;20.96;43.99
15670;BME280;18524;45.190;5.732;2023-05-10T14:56:16;99127.78;;;20.88;44.26
15670;BME280;18524;45.190;5.732;2023-05-10T15:01:06;99137.78;;;20.65;44.41
15670;BME280;18524;45.190;5.732;2023-05-10T15:05:57;99135.78;;;20.37;44.73
15670;BME280;18524;45.190;5.732;2023-05-10T15:10:47;99147.13;;;20.10;46.34
15670;BME280;18524;45.190;5.732;2023-05-10T15:15:38;99154.72;;;19.98;46.89
15670;BME280;18524;45.190;5.732;2023-05-10T15:20:29;99150.59;;;19.81;46.94
15670;BME280;18524;45.190;5.732;2023-05-10T15:25:19;99142.69;;;19.73;47.34
15670;BME280;18524;45.190;5.732;2023-05-10T15:30:11;99150.69;;;19.73;47.72
15670;BME280;18524;45.190;5.732;2023-05-10T15:35:02;99144.22;;;19.67;48.41
15670;BME280;18524;45.190;5.732;2023-05-10T15:39:52;99136.78;;;19.62;46.82
15670;BME280;18524;45.190;5.732;2023-05-10T15:44:43;99140.41;;;19.47;46.30
15670;BME280;18524;45.190;5.732;2023-05-10T15:49:34;99159.50;;;19.27;44.44
15670;BME280;18524;45.190;5.732;2023-05-10T15:54:25;99140.69;;;19.14;44.23
15670;BME280;18524;45.190;5.732;2023-05-10T15:59:16;99145.91;;;19.08;43.59
15670;BME280;18524;45.190;5.732;2023-05-10T16:04:06;99158.19;;;19.09;44.11
15670;BME280;18524;45.190;5.732;2023-05-10T16:08:57;99146.47;;;19.18;45.69
15670;BME280;18524;45.190;5.732;2023-05-10T16:13:47;99136.19;;;19.15;45.09
15670;BME280;18524;45.190;5.732;2023-05-10T16:18:38;99133.78;;;19.05;45.63
15670;BME280;18524;45.190;5.732;2023-05-10T16:23:29;99139.03;;;19.13;45.82
15670;BME280;18524;45.190;5.732;2023-05-10T16:28:20;99138.13;;;19.21;43.76
15670;BME280;18524;45.190;5.732;2023-05-10T16:33:10;99135.59;;;19.27;44.06
15670;BME280;18524;45.190;5.732;2023-05-10T16:38:00;99135.03;;;19.32;44.26
15670;BME280;18524;45.190;5.732;2023-05-10T16:42:51;99131.16;;;19.20;44.37
15670;BME280;18524;45.190;5.732;2023-05-10T16:47:41;99120.88;;;19.17;45.04
15670;BME280;18524;45.190;5.732;2023-05-10T16:52:33;99117.91;;;18.97;45.03
15670;BME280;18524;45.190;5.732;2023-05-10T16:57:24;99121.03;;;19.00;44.76
15670;BME280;18524;45.190;5.732;2023-05-10T17:02:14;99102.06;;;18.81;46.15
15670;BME280;18524;45.190;5.732;2023-05-10T17:07:05;99110.69;;;18.83;48.14
15670;BME280;18524;45.190;5.732;2023-05-10T17:11:55;99107.91;;;18.76;48.85
15670;BME280;18524;45.190;5.732;2023-05-10T17:16:45;99105.06;;;18.78;49.26
15670;BME280;18524;45.190;5.732;2023-05-10T17:21:37;99109.31;;;18.56;50.76
15670;BME280;18524;45.190;5.732;2023-05-10T17:26:27;99104.06;;;18.48;50.51
15670;BME280;18524;45.190;5.732;2023-05-10T17:31:19;99089.19;;;18.38;50.86
15670;BME280;18524;45.190;5.732;2023-05-10T17:36:09;99099.22;;;18.28;51.60
15670;BME280;18524;45.190;5.732;2023-05-10T17:40:59;99109.06;;;18.11;53.25
15670;BME280;18524;45.190;5.732;2023-05-10T17:45:50;99103.13;;;18.01;54.08
15670;BME280;18524;45.190;5.732;2023-05-10T17:50:41;99113.22;;;18.06;53.92
15670;BME280;18524;45.190;5.732;2023-05-10T17:55:32;99115.28;;;17.96;53.34
15670;BME280;18524;45.190;5.732;2023-05-10T18:00:22;99116.97;;;17.89;53.18
15670;BME280;18524;45.190;5.732;2023-05-10T18:05:13;99116.50;;;17.69;54.90
15670;BME280;18524;45.190;5.732;2023-05-10T18:10:03;99113.69;;;17.54;54.49
15670;BME280;18524;45.190;5.732;2023-05-10T18:14:54;99111.88;;;17.55;54.58
15670;BME280;18524;45.190;5.732;2023-05-10T18:19:45;99108.53;;;17.44;54.61
15670;BME280;18524;45.190;5.732;2023-05-10T18:24:35;99102.09;;;17.39;56.39
15670;BME280;18524;45.190;5.732;2023-05-10T18:29:25;99105.44;;;17.25;55.48
15670;BME280;18524;45.190;5.732;2023-05-10T18:34:16;99098.31;;;17.17;55.89
15670;BME280;18524;45.190;5.732;2023-05-10T18:39:06;99104.59;;;17.08;55.03
15670;BME280;18524;45.190;5.732;2023-05-10T18:43:57;99099.97;;;17.02;54.29
15670;BME280;18524;45.190;5.732;2023-05-10T18:48:47;99112.06;;;16.88;54.67
15670;BME280;18524;45.190;5.732;2023-05-10T18:53:38;99114.53;;;16.90;54.79
15670;BME280;18524;45.190;5.732;2023-05-10T18:58:28;99115.69;;;16.87;54.01
15670;BME280;18524;45.190;5.732;2023-05-10T19:03:19;99120.34;;;16.77;54.82
15670;BME280;18524;45.190;5.732;2023-05-10T19:08:10;99118.84;;;16.74;53.71
15670;BME280;18524;45.190;5.732;2023-05-10T19:13:00;99124.88;;;16.58;53.14
15670;BME280;18524;45.190;5.732;2023-05-10T19:17:51;99135.97;;;16.62;54.60
15670;BME280;18524;45.190;5.732;2023-05-10T19:22:41;99138.13;;;16.58;57.63
15670;BME280;18524;45.190;5.732;2023-05-10T19:27:31;99141.09;;;16.55;58.52
15670;BME280;18524;45.190;5.732;2023-05-10T19:32:23;99143.25;;;16.52;55.82
15670;BME280;18524;45.190;5.732;2023-05-10T19:37:13;99144.75;;;16.63;55.60
15670;BME280;18524;45.190;5.732;2023-05-10T19:42:03;99154.84;;;16.59;57.84
15670;BME280;18524;45.190;5.732;2023-05-10T19:46:54;99158.63;;;16.56;59.90
15670;BME280;18524;45.190;5.732;2023-05-10T19:51:44;99160.03;;;16.26;61.92
15670;BME280;18524;45.190;5.732;2023-05-10T19:56:35;99172.78;;;16.31;66.67
15670;BME280;18524;45.190;5.732;2023-05-10T20:01:25;99165.31;;;16.26;65.48
15670;BME280;18524;45.190;5.732;2023-05-10T20:06:16;99177.06;;;16.32;66.51
15670;BME280;18524;45.190;5.732;2023-05-10T20:11:07;99175.56;;;16.30;64.40
15670;BME280;18524;45.190;5.732;2023-05-10T20:15:58;99173.59;;;16.32;63.70
15670;BME280;18524;45.190;5.732;2023-05-10T20:20:53;99167.63;;;16.30;61.89
15670;BME280;18524;45.190;5.732;2023-05-10T20:25:44;99177.41;;;16.29;58.03
15670;BME280;18524;45.190;5.732;2023-05-10T20:30:35;99177.75;;;16.34;63.67
15670;BME280;18524;45.190;5.732;2023-05-10T20:35:26;99185.84;;;16.33;64.34
15670;BME280;18524;45.190;5.732;2023-05-10T20:40:16;99184.03;;;16.33;66.97
15670;BME280;18524;45.190;5.732;2023-05-10T20:45:07;99178.56;;;16.35;67.22
15670;BME280;18524;45.190;5.732;2023-05-10T20:49:58;99180.19;;;16.19;66.48
15670;BME280;18524;45.190;5.732;2023-05-10T20:54:48;99184.28;;;16.14;64.78
15670;BME280;18524;45.190;5.732;2023-05-10T20:59:39;99183.25;;;16.07;65.87
15670;BME280;18524;45.190;5.732;2023-05-10T21:04:29;99183.25;;;16.07;65.80
15670;BME280;18524;45.190;5.732;2023-05-10T21:09:20;99191.25;;;16.15;69.93
15670;BME280;18524;45.190;5.732;2023-05-10T21:14:11;99190.25;;;16.16;68.80
15670;BME280;18524;45.190;5.732;2023-05-10T21:19:01;99187.06;;;16.04;66.67
15670;BME280;18524;45.190;5.732;2023-05-10T21:23:52;99184.41;;;16.04;66.13
15670;BME280;18524;45.190;5.732;2023-05-10T21:28:43;99182.44;;;16.06;65.13
15670;BME280;18524;45.190;5.732;2023-05-10T21:33:33;99177.78;;;16.00;65.43
15670;BME280;18524;45.190;5.732;2023-05-10T21:38:26;99182.09;;;16.01;64.43
15670;BME280;18524;45.190;5.732;2023-05-10T21:43:16;99181.50;;;15.89;65.46
15670;BME280;18524;45.190;5.732;2023-05-10T21:48:07;99167.91;;;15.84;65.65
15670;BME280;18524;45.190;5.732;2023-05-10T21:52:58;99162.31;;;15.87;67.00
15670;BME280;18524;45.190;5.732;2023-05-10T21:57:49;99158.94;;;15.77;66.62
15670;BME280;18524;45.190;5.732;2023-05-10T22:02:40;99160.94;;;15.75;66.44
15670;BME280;18524;45.190;5.732;2023-05-10T22:07:30;99153.78;;;15.68;65.85
15670;BME280;18524;45.190;5.732;2023-05-10T22:12:21;99158.09;;;15.69;65.17
15670;BME280;18524;45.190;5.732;2023-05-10T22:17:11;99148.19;;;15.53;66.89
15670;BME280;18524;45.190;5.732;2023-05-10T22:22:02;99156.25;;;15.51;66.14
15670;BME280;18524;45.190;5.732;2023-05-10T22:26:53;99158.22;;;15.49;67.77
15670;BME280;18524;45.190;5.732;2023-05-10T22:31:45;99154.19;;;15.37;68.82
15670;BME280;18524;45.190;5.732;2023-05-10T22:36:35;99152.06;;;15.41;69.43
15670;BME280;18524;45.190;5.732;2023-05-10T22:41:26;99149.41;;;15.41;70.48
15670;BME280;18524;45.190;5.732;2023-05-10T22:46:16;99154.56;;;15.42;75.05
15670;BME280;18524;45.190;5.732;2023-05-10T22:51:07;99144.66;;;15.44;74.32
15670;BME280;18524;45.190;5.732;2023-05-10T22:55:57;99145.69;;;15.51;76.18
15670;BME280;18524;45.190;5.732;2023-05-10T23:00:47;99144.19;;;15.49;73.57
15670;BME280;18524;45.190;5.732;2023-05-10T23:05:38;99151.59;;;15.45;74.63
15670;BME280;18524;45.190;5.732;2023-05-10T23:10:28;99132.28;;;15.45;72.50
15670;BME280;18524;45.190;5.732;2023-05-10T23:15:19;99134.84;;;15.37;72.17
15670;BME280;18524;45.190;5.732;2023-05-10T23:20:10;99135.53;;;15.39;71.44
15670;BME280;18524;45.190;5.732;2023-05-10T23:25:00;99138.13;;;15.30;71.74
15670;BME280;18524;45.190;5.732;2023-05-10T23:29:51;99129.44;;;15.20;72.66
15670;BME280;18524;45.190;5.732;2023-05-10T23:34:44;99133.72;;;15.21;74.89
15670;BME280;18524;45.190;5.732;2023-05-10T23:39:35;99123.72;;;15.07;74.75
15670;BME280;18524;45.190;5.732;2023-05-10T23:44:25;99122.38;;;15.03;75.20
15670;BME280;18524;45.190;5.732;2023-05-10T23:49:16;99112.41;;;14.97;77.49
15670;BME280;18524;45.190;5.732;2023-05-10T23:54:06;99110.16;;;15.02;78.60
15670;BME280;18524;45.190;5.732;2023-05-10T23:58:57;99115.59;;;15.00;78.95
